This is the latest recevied weather packets stored in our database for station/object FHDOHA-13. If no packets are shown the sender has not sent any weather packets the latest 10 day(s).
| Time | Temp. | Humidity | Pressure | Rain* | Wind** | Luminosity | Snow |
|---|---|---|---|---|---|---|---|
| 1777501872 | 5° C | 60% | 1031.1 hPa | 0 mm | - | - | - |
| 1777500972 | 5° C | 59% | 1031.1 hPa | 0 mm | - | - | - |
| 1777500072 | 5° C | 59% | 1031.1 hPa | 0 mm | - | - | - |
| 1777499172 | 5.56° C | 58% | 1031.1 hPa | 0 mm | - | - | - |
| 1777498272 | 5.56° C | 58% | 1031 hPa | 0 mm | - | - | - |
| 1777497372 | 6.11° C | 55% | 1031 hPa | 0 mm | - | - | - |
| 1777496472 | 6.67° C | 52% | 1029.9 hPa | 0 mm | - | - | - |
| 1777495573 | 6.67° C | 52% | 1029.9 hPa | 0 mm | - | - | - |
| 1777494672 | 7.22° C | 50% | 1029.8 hPa | 0 mm | - | - | - |
| 1777493773 | 8.33° C | 47% | 1029.7 hPa | 0 mm | - | - | - |
| 1777492872 | 8.89° C | 43% | 1029.6 hPa | 0 mm | - | - | - |
| 1777491973 | 10° C | 39% | 1029.5 hPa | 0 mm | - | - | - |
| 1777491073 | 10.56° C | 37% | 1029.5 hPa | 0 mm | - | - | - |
| 1777490172 | 11.11° C | 35% | 1029.4 hPa | 0 mm | - | - | - |
| 1777489273 | 11.11° C | 35% | 1028.3 hPa | 0 mm | - | - | - |
| 1777488372 | 11.67° C | 33% | 1028.3 hPa | 0 mm | - | - | - |
| 1777487472 | 12.78° C | 31% | 1028.2 hPa | 0 mm | - | - | - |
| 1777486572 | 16.11° C | 26% | 1027.8 hPa | 0 mm | - | - | - |
| 1777485672 | 17.22° C | 26% | 1027.7 hPa | 0 mm | - | - | - |
| 1777484772 | 17.22° C | 28% | 1027.7 hPa | 0 mm | - | - | - |
| 1777483873 | 13.89° C | 31% | 1027.1 hPa | 0 mm | - | - | - |
| 1777482972 | 13.89° C | 31% | 1028 hPa | 0 mm | - | - | - |
| 1777482072 | 13.89° C | 30% | 1027 hPa | 0 mm | - | - | - |
| 1777481172 | 14.44° C | 30% | 1028 hPa | 0 mm | - | - | - |
| 1777480272 | 14.44° C | 29% | 1027 hPa | 0 mm | - | - | - |
* Rain latest hour (hover to see other rain measurements)
** Current wind speed in m/s (hover to see current wind gust speed)